Shamrock Shores, Texas
Current Conditions -  °F | °C
As of 10:55 AM on Thursday 18 Dec 2014 (Local Time) from KBWD Reporting Station
Few Clouds Few Clouds  
Wind Chill: 57°   Ceiling: Unl
Heat Index: 57°   Visibility: 10mi
Dew Point: 50°   Wind: 5mph
Humidity: 77%   Direction: 270°W
Pressure: 30.15"   Gusts: NA
Location:  31.6193°N, 98.9922°W
Report Text: KBWD 181655Z AUTO 27004KT 10SM FEW013 14/10 A3015 RMK AO2
Loading
Personal Weather Stations






























Interactive Weather Map New forecast layout! Learn more

10-Day Weather Forecast

Advertisements
Track Severe Weather on mobile